createdAt,value
2022-09-28T00:00:07.596Z,64.15
2022-09-28T00:02:35.867Z,63.82
2022-09-28T00:05:03.608Z,64.17
2022-09-28T00:07:31.357Z,63.90
2022-09-28T00:10:00.517Z,63.84
2022-09-28T00:12:29.811Z,63.69
2022-09-28T00:14:57.515Z,63.80
2022-09-28T00:17:26.508Z,63.68
2022-09-28T00:19:54.220Z,63.92
2022-09-28T00:22:21.937Z,63.87
2022-09-28T00:24:49.658Z,63.91
2022-09-28T00:27:18.741Z,63.92
2022-09-28T00:29:46.556Z,63.92
2022-09-28T00:32:15.643Z,64.07
2022-09-28T00:34:45.972Z,63.93
2022-09-28T00:37:15.174Z,64.14
2022-09-28T00:39:44.033Z,63.93
2022-09-28T00:42:15.521Z,64.00
2022-09-28T00:44:48.625Z,63.95
2022-09-28T00:47:28.081Z,63.90
2022-09-28T00:50:01.209Z,63.98
2022-09-28T00:52:33.745Z,64.18
2022-09-28T00:55:05.040Z,64.29
2022-09-28T00:57:33.697Z,64.12
2022-09-28T01:00:04.289Z,64.26
2022-09-28T01:02:32.738Z,64.32
2022-09-28T01:05:01.461Z,64.07
2022-09-28T01:07:29.791Z,64.15
2022-09-28T01:09:57.687Z,64.35
2022-09-28T01:12:25.411Z,64.32
2022-09-28T01:14:53.732Z,64.27
2022-09-28T01:17:27.697Z,64.24
2022-09-28T01:20:23.714Z,64.38
2022-09-28T01:23:20.838Z,64.34
2022-09-28T01:25:55.948Z,64.50
2022-09-28T01:28:29.051Z,64.64
2022-09-28T01:31:05.562Z,64.41
2022-09-28T01:33:39.210Z,64.83
2022-09-28T01:36:12.860Z,64.57
2022-09-28T01:38:45.660Z,64.77
2022-09-28T01:41:14.668Z,64.71
2022-09-28T01:43:48.977Z,64.82
2022-09-28T01:46:20.391Z,64.85
2022-09-28T01:48:53.463Z,64.58
2022-09-28T01:51:27.026Z,65.06
2022-09-28T01:53:58.569Z,64.91
2022-09-28T01:56:31.783Z,65.11
2022-09-28T01:59:09.327Z,65.09
2022-09-28T02:01:41.419Z,64.85
2022-09-28T02:04:15.625Z,65.17
2022-09-28T02:06:47.943Z,65.00
2022-09-28T02:09:21.185Z,64.93
2022-09-28T02:11:54.809Z,65.27
2022-09-28T02:14:26.098Z,65.27
2022-09-28T02:16:55.753Z,65.20
2022-09-28T02:19:26.546Z,65.25
2022-09-28T02:21:59.537Z,64.92
2022-09-28T02:24:33.402Z,65.18
2022-09-28T02:27:10.252Z,65.04
2022-09-28T02:29:39.140Z,65.18
2022-09-28T02:32:06.929Z,65.09
2022-09-28T02:34:36.616Z,64.88
2022-09-28T02:37:04.970Z,64.96
2022-09-28T02:39:32.704Z,65.08
2022-09-28T02:42:09.135Z,64.77
2022-09-28T02:45:06.502Z,65.02
2022-09-28T02:47:46.184Z,65.03
2022-09-28T02:50:21.772Z,64.82
2022-09-28T02:53:15.987Z,64.88
2022-09-28T02:55:57.559Z,64.76
2022-09-28T02:58:40.603Z,64.55
2022-09-28T03:01:21.955Z,64.48
2022-09-28T03:03:55.513Z,64.43
2022-09-28T03:06:28.344Z,64.69
2022-09-28T03:09:01.298Z,64.64
2022-09-28T03:11:34.559Z,64.57
2022-09-28T03:14:04.123Z,64.40
2022-09-28T03:16:33.305Z,64.39
2022-09-28T03:19:01.070Z,64.55
2022-09-28T03:21:28.799Z,64.36
2022-09-28T03:23:56.528Z,64.51
2022-09-28T03:26:24.265Z,64.40
2022-09-28T03:28:51.956Z,64.54
2022-09-28T03:31:19.918Z,64.34
2022-09-28T03:33:49.335Z,64.43
2022-09-28T03:36:17.066Z,64.48
2022-09-28T03:38:45.066Z,64.43
2022-09-28T03:41:12.832Z,64.48
2022-09-28T03:43:40.588Z,64.32
2022-09-28T03:46:08.301Z,64.56
2022-09-28T03:48:37.464Z,64.42
2022-09-28T03:51:09.270Z,64.59
2022-09-28T03:53:37.245Z,64.50
2022-09-28T03:56:06.366Z,64.46
2022-09-28T03:58:34.227Z,64.53
2022-09-28T04:01:06.568Z,64.53
2022-09-28T04:03:34.773Z,64.34
2022-09-28T04:06:02.927Z,64.49
2022-09-28T04:08:32.451Z,64.48
2022-09-28T04:11:00.635Z,64.48
2022-09-28T04:13:29.907Z,64.47
2022-09-28T04:15:59.266Z,64.57
2022-09-28T04:18:27.351Z,64.44
2022-09-28T04:21:06.513Z,64.57
2022-09-28T04:23:37.136Z,64.27
2022-09-28T04:26:05.676Z,64.46
2022-09-28T04:28:51.882Z,64.64
2022-09-28T04:31:22.094Z,64.34
2022-09-28T04:33:50.148Z,64.33
2022-09-28T04:36:19.940Z,64.52
2022-09-28T04:38:53.272Z,64.38
2022-09-28T04:41:22.409Z,64.58
2022-09-28T04:43:51.009Z,64.36
2022-09-28T04:46:18.921Z,64.48
2022-09-28T04:48:46.860Z,64.61
2022-09-28T04:51:14.556Z,64.60
2022-09-28T04:53:42.300Z,64.40
2022-09-28T04:56:13.799Z,64.57
2022-09-28T04:58:41.797Z,64.50
2022-09-28T05:01:12.706Z,64.68
2022-09-28T05:03:40.752Z,64.57
2022-09-28T05:06:08.867Z,64.42
2022-09-28T05:08:37.173Z,64.58
2022-09-28T05:11:08.272Z,64.49
2022-09-28T05:13:42.735Z,64.50
2022-09-28T05:16:11.125Z,64.34
2022-09-28T05:18:39.475Z,64.30
2022-09-28T05:21:11.136Z,64.28
2022-09-28T05:23:38.900Z,64.27
2022-09-28T05:26:06.887Z,64.30
2022-09-28T05:28:35.164Z,64.40
2022-09-28T05:31:05.944Z,64.20
2022-09-28T05:33:34.807Z,64.23
2022-09-28T05:36:02.971Z,64.26
2022-09-28T05:38:31.347Z,64.34
2022-09-28T05:41:01.200Z,64.29
2022-09-28T05:43:33.069Z,64.37
2022-09-28T05:46:01.484Z,64.38
2022-09-28T05:48:30.662Z,64.21
2022-09-28T05:50:59.782Z,64.36
2022-09-28T05:53:27.722Z,64.23
2022-09-28T05:55:58.853Z,64.25
2022-09-28T05:58:26.581Z,64.43
2022-09-28T06:00:55.647Z,64.42
2022-09-28T06:03:23.646Z,64.44
2022-09-28T06:05:52.812Z,64.51
2022-09-28T06:08:23.467Z,64.52
2022-09-28T06:10:51.226Z,64.44
2022-09-28T06:13:18.938Z,64.50
2022-09-28T06:15:47.373Z,64.71
2022-09-28T06:18:16.345Z,64.65
2022-09-28T06:20:44.392Z,64.52
2022-09-28T06:23:14.451Z,64.48
2022-09-28T06:25:42.291Z,64.53
2022-09-28T06:28:12.510Z,64.49
2022-09-28T06:30:41.845Z,64.54
2022-09-28T06:33:13.556Z,64.68
2022-09-28T06:35:42.232Z,64.64
2022-09-28T06:38:10.262Z,64.47
2022-09-28T06:40:39.581Z,64.70
2022-09-28T06:43:10.903Z,64.84
2022-09-28T06:45:39.707Z,64.81
2022-09-28T06:48:08.248Z,64.93
2022-09-28T06:50:38.394Z,64.85
2022-09-28T06:53:07.652Z,64.84
2022-09-28T06:55:35.371Z,64.74
2022-09-28T06:58:05.908Z,64.78
2022-09-28T07:00:35.795Z,64.87
2022-09-28T07:03:05.109Z,64.77
2022-09-28T07:05:35.114Z,64.82
2022-09-28T07:08:03.543Z,64.86
2022-09-28T07:10:32.488Z,65.00
2022-09-28T07:13:03.117Z,64.96
2022-09-28T07:15:33.182Z,65.15
2022-09-28T07:18:03.994Z,65.20
2022-09-28T07:20:35.085Z,65.21
2022-09-28T07:23:18.612Z,65.24
2022-09-28T07:25:48.153Z,65.46
2022-09-28T07:28:17.259Z,65.49
2022-09-28T07:30:46.371Z,65.49
2022-09-28T07:33:15.964Z,65.63
2022-09-28T07:35:51.736Z,65.84
2022-09-28T07:38:19.908Z,65.84
2022-09-28T07:41:06.131Z,65.87
2022-09-28T07:43:33.933Z,65.85
2022-09-28T07:46:03.351Z,65.80
2022-09-28T07:48:37.837Z,65.83
2022-09-28T07:51:06.175Z,65.80
2022-09-28T07:53:34.040Z,65.58
2022-09-28T07:56:05.096Z,64.94
2022-09-28T07:58:33.788Z,64.62
2022-09-28T08:01:07.110Z,64.20
2022-09-28T08:03:35.526Z,63.42
2022-09-28T08:06:05.940Z,63.43
2022-09-28T08:08:35.074Z,63.39
2022-09-28T08:11:04.152Z,63.66
2022-09-28T08:13:32.339Z,63.90
2022-09-28T08:16:02.912Z,64.10
2022-09-28T08:18:32.434Z,64.17
2022-09-28T08:21:17.922Z,64.36
2022-09-28T08:23:45.665Z,64.59
2022-09-28T08:26:15.707Z,64.87
2022-09-28T08:28:45.256Z,64.82
2022-09-28T08:31:13.244Z,65.36
2022-09-28T08:33:43.107Z,65.15
2022-09-28T08:36:12.086Z,65.29
2022-09-28T08:38:39.823Z,65.81
2022-09-28T08:41:16.625Z,65.41
2022-09-28T08:44:06.970Z,65.62
2022-09-28T08:46:38.742Z,65.53
2022-09-28T08:49:24.945Z,65.80
2022-09-28T08:52:00.497Z,65.99
2022-09-28T08:54:39.036Z,66.27
2022-09-28T08:57:12.214Z,66.42
2022-09-28T08:59:52.448Z,66.17
2022-09-28T09:02:25.538Z,66.54
2022-09-28T09:04:55.819Z,66.59
2022-09-28T09:07:38.264Z,66.55
2022-09-28T09:10:14.807Z,66.50
2022-09-28T09:12:50.425Z,66.78
2022-09-28T09:15:39.479Z,66.81
2022-09-28T09:18:25.878Z,67.05
2022-09-28T09:20:58.384Z,67.25
2022-09-28T09:23:41.911Z,67.17
2022-09-28T09:26:21.448Z,67.23
2022-09-28T09:29:06.382Z,66.87
2022-09-28T09:31:50.184Z,66.57
2022-09-28T09:34:42.701Z,66.45
2022-09-28T09:37:25.233Z,65.74
2022-09-28T09:40:08.718Z,65.14
2022-09-28T09:42:52.584Z,64.51
2022-09-28T09:45:46.609Z,64.29
2022-09-28T09:48:20.732Z,64.21
2022-09-28T09:50:52.232Z,63.85
2022-09-28T09:53:28.897Z,63.94
2022-09-28T09:55:58.535Z,64.38
2022-09-28T09:58:30.652Z,64.73
2022-09-28T10:01:07.422Z,64.92
2022-09-28T10:03:40.112Z,65.30
2022-09-28T10:06:13.199Z,65.41
2022-09-28T10:08:47.210Z,65.45
2022-09-28T10:11:18.195Z,65.39
2022-09-28T10:13:49.250Z,65.85
2022-09-28T10:16:19.219Z,65.58
2022-09-28T10:18:47.372Z,65.65
2022-09-28T10:21:16.019Z,65.94
2022-09-28T10:23:47.347Z,65.95
2022-09-28T10:26:25.360Z,65.73
2022-09-28T10:28:57.026Z,65.82
2022-09-28T10:31:39.084Z,66.01
2022-09-28T10:34:08.499Z,66.05
2022-09-28T10:36:48.231Z,66.06
2022-09-28T10:39:36.628Z,66.20
2022-09-28T10:42:08.777Z,66.07
2022-09-28T10:44:50.316Z,66.28
2022-09-28T10:47:20.896Z,66.27
2022-09-28T10:49:51.405Z,66.13
2022-09-28T10:52:37.368Z,65.87
2022-09-28T10:55:28.918Z,66.24
2022-09-28T10:57:56.676Z,66.58
2022-09-28T11:00:38.643Z,65.87
2022-09-28T11:03:07.011Z,66.06
2022-09-28T11:05:35.980Z,65.71
2022-09-28T11:08:07.998Z,65.57
2022-09-28T11:10:37.399Z,65.94
2022-09-28T11:13:09.968Z,65.54
2022-09-28T11:15:44.054Z,65.48
2022-09-28T11:18:28.325Z,65.53
2022-09-28T11:21:11.679Z,65.27
2022-09-28T11:23:42.235Z,64.94
2022-09-28T11:26:18.197Z,65.15
2022-09-28T11:28:52.270Z,65.11
2022-09-28T11:31:27.080Z,64.66
2022-09-28T11:34:05.352Z,64.72
2022-09-28T11:36:47.009Z,64.72
2022-09-28T11:39:28.190Z,64.81
2022-09-28T11:42:16.131Z,64.34
2022-09-28T11:44:46.518Z,64.63
2022-09-28T11:47:50.607Z,64.89
2022-09-28T11:50:29.813Z,64.94
2022-09-28T11:53:05.710Z,64.59
2022-09-28T11:55:38.154Z,64.79
2022-09-28T11:58:12.953Z,64.76
2022-09-28T12:00:47.122Z,64.36
2022-09-28T12:03:19.534Z,64.31
2022-09-28T12:05:53.210Z,64.50
2022-09-28T12:08:27.436Z,64.61
2022-09-28T12:11:01.220Z,64.09
2022-09-28T12:13:36.271Z,63.98
2022-09-28T12:16:32.344Z,64.36
2022-09-28T12:21:38.539Z,64.67
2022-09-28T12:24:16.230Z,63.60
2022-09-28T12:26:49.797Z,63.06
2022-09-28T12:29:23.928Z,63.30
2022-09-28T12:31:59.170Z,62.81
2022-09-28T12:34:27.067Z,63.36
2022-09-28T12:37:24.471Z,63.92
2022-09-28T12:40:09.088Z,63.38
2022-09-28T12:42:52.907Z,62.98
2022-09-28T12:45:53.218Z,62.90
2022-09-28T12:48:57.244Z,63.47
2022-09-28T12:51:45.774Z,63.45
2022-09-28T12:54:34.500Z,62.82
2022-09-28T12:57:16.576Z,62.80
2022-09-28T12:59:57.378Z,62.28
2022-09-28T13:03:00.056Z,62.69
2022-09-28T13:06:06.384Z,63.03
2022-09-28T13:08:44.558Z,62.83
2022-09-28T13:11:24.120Z,62.95
2022-09-28T13:14:04.360Z,63.35
2022-09-28T13:16:40.383Z,63.08
2022-09-28T13:19:16.895Z,63.90
2022-09-28T13:21:51.937Z,63.88
2022-09-28T13:24:34.041Z,63.58
2022-09-28T13:27:06.855Z,64.03
2022-09-28T13:29:35.343Z,64.33
2022-09-28T13:32:04.755Z,64.42
2022-09-28T13:34:36.547Z,64.29
2022-09-28T13:37:25.628Z,64.81
2022-09-28T13:39:55.170Z,64.96
2022-09-28T13:42:37.874Z,64.64
2022-09-28T13:45:18.612Z,64.87
2022-09-28T13:48:06.740Z,65.51
2022-09-28T13:50:49.955Z,65.05
2022-09-28T13:53:28.307Z,65.12
2022-09-28T13:56:05.623Z,65.73
2022-09-28T13:58:39.971Z,65.78
2022-09-28T14:01:12.565Z,65.75
2022-09-28T14:03:54.317Z,65.60
2022-09-28T14:06:26.996Z,65.44
2022-09-28T14:09:25.549Z,65.25
2022-09-28T14:11:58.916Z,65.46
2022-09-28T14:14:50.359Z,65.48
2022-09-28T14:17:53.242Z,65.67
2022-09-28T14:20:27.808Z,65.19
2022-09-28T14:23:16.997Z,65.70
2022-09-28T14:25:46.488Z,65.50
2022-09-28T14:28:30.765Z,65.63
2022-09-28T14:30:59.858Z,65.66
2022-09-28T14:33:30.453Z,65.79
2022-09-28T14:36:02.223Z,65.84
2022-09-28T14:38:53.518Z,65.89
2022-09-28T14:41:33.810Z,65.88
2022-09-28T14:44:04.903Z,65.86
2022-09-28T14:46:44.729Z,66.06
2022-09-28T14:49:51.314Z,66.37
2022-09-28T14:52:38.963Z,66.63
2022-09-28T14:55:13.755Z,66.67
2022-09-28T14:57:43.114Z,66.51
2022-09-28T15:00:20.270Z,66.18
2022-09-28T15:02:52.629Z,66.08
2022-09-28T15:05:25.429Z,65.64
2022-09-28T15:07:54.548Z,65.67
2022-09-28T15:10:32.357Z,65.88
2022-09-28T15:13:02.404Z,65.71
2022-09-28T15:15:34.525Z,65.48
2022-09-28T15:18:42.695Z,65.75
2022-09-28T15:21:11.609Z,65.57
2022-09-28T15:23:41.646Z,64.59
2022-09-28T15:26:24.119Z,65.04
2022-09-28T15:28:51.849Z,64.46
2022-09-28T15:31:21.773Z,64.71
2022-09-28T15:34:07.334Z,64.52
2022-09-28T15:36:39.716Z,64.33
2022-09-28T15:39:13.432Z,64.42
2022-09-28T15:41:44.263Z,64.67
2022-09-28T15:44:29.075Z,64.36
2022-09-28T15:47:08.478Z,64.53
2022-09-28T15:49:41.189Z,64.18
2022-09-28T15:52:23.155Z,64.57
2022-09-28T15:54:51.299Z,64.12
2022-09-28T15:57:37.044Z,63.97
2022-09-28T16:00:08.088Z,64.10
2022-09-28T16:02:36.728Z,64.33
2022-09-28T16:05:05.388Z,64.46
2022-09-28T16:07:38.421Z,64.70
2022-09-28T16:10:37.652Z,64.35
2022-09-28T16:13:15.646Z,64.26
2022-09-28T16:15:43.973Z,64.12
2022-09-28T16:18:22.135Z,63.28
2022-09-28T16:20:52.344Z,62.61
2022-09-28T16:23:26.936Z,62.31
2022-09-28T16:25:59.824Z,61.44
2022-09-28T16:28:46.216Z,61.14
2022-09-28T16:31:27.909Z,60.23
2022-09-28T16:33:58.955Z,60.31
2022-09-28T16:36:29.870Z,60.00
2022-09-28T16:38:57.647Z,60.12
2022-09-28T16:41:30.344Z,60.46
2022-09-28T16:44:01.048Z,60.36
2022-09-28T16:46:32.607Z,60.79
2022-09-28T16:49:02.999Z,61.00
2022-09-28T16:51:30.815Z,61.23
2022-09-28T16:54:19.025Z,61.15
2022-09-28T16:56:48.122Z,61.58
2022-09-28T16:59:15.989Z,61.65
2022-09-28T17:01:44.009Z,61.68
2022-09-28T17:04:12.705Z,61.70
2022-09-28T17:06:40.500Z,61.42
2022-09-28T17:09:12.825Z,61.34
2022-09-28T17:11:40.931Z,61.92
2022-09-28T17:14:10.132Z,61.80
2022-09-28T17:19:28.756Z,61.59
2022-09-28T17:21:56.504Z,61.00
2022-09-28T17:24:24.342Z,60.45
2022-09-28T17:26:53.145Z,60.07
2022-09-28T17:29:22.372Z,59.71
2022-09-28T17:31:50.062Z,60.00
2022-09-28T17:34:18.028Z,59.75
2022-09-28T17:36:46.178Z,59.93
2022-09-28T17:39:15.295Z,60.01
2022-09-28T17:41:43.075Z,60.38
2022-09-28T17:44:11.227Z,60.88
2022-09-28T17:46:45.873Z,61.12
2022-09-28T17:49:14.061Z,61.26
2022-09-28T17:51:42.117Z,61.24
2022-09-28T17:54:09.933Z,61.41
2022-09-28T17:56:38.078Z,61.82
2022-09-28T17:59:07.299Z,61.65
2022-09-28T18:01:38.863Z,62.27
2022-09-28T18:04:13.204Z,62.26
2022-09-28T18:06:46.954Z,61.91
2022-09-28T18:09:16.443Z,62.16
2022-09-28T18:11:46.058Z,62.45
2022-09-28T18:14:13.881Z,62.63
2022-09-28T18:16:41.678Z,62.41
2022-09-28T18:19:10.797Z,62.78
2022-09-28T18:21:38.522Z,62.64
2022-09-28T18:24:06.541Z,62.80
2022-09-28T18:26:34.369Z,62.44
2022-09-28T18:29:02.095Z,62.49
2022-09-28T18:31:29.918Z,62.81
2022-09-28T18:34:01.669Z,62.95
2022-09-28T18:36:31.799Z,62.72
2022-09-28T18:39:01.494Z,62.89
2022-09-28T18:41:29.721Z,62.97
2022-09-28T18:44:00.765Z,62.69
2022-09-28T18:46:29.403Z,62.33
2022-09-28T18:48:57.671Z,61.90
2022-09-28T18:51:25.451Z,61.18
2022-09-28T18:53:54.571Z,60.71
2022-09-28T18:56:22.871Z,60.42
2022-09-28T18:58:52.756Z,59.92
2022-09-28T19:01:30.753Z,59.40
2022-09-28T19:04:00.206Z,58.95
2022-09-28T19:06:28.299Z,59.26
2022-09-28T19:08:57.838Z,59.42
2022-09-28T19:11:27.107Z,59.59
2022-09-28T19:13:56.034Z,59.64
2022-09-28T19:16:26.044Z,60.10
2022-09-28T19:18:53.974Z,60.30
2022-09-28T19:21:22.179Z,60.82
2022-09-28T19:23:50.215Z,60.46
2022-09-28T19:26:21.417Z,60.53
2022-09-28T19:28:49.333Z,60.85
2022-09-28T19:31:17.563Z,61.20
2022-09-28T19:33:46.777Z,60.98
2022-09-28T19:36:17.727Z,61.37
2022-09-28T19:38:46.355Z,61.16
2022-09-28T19:41:39.315Z,61.61
2022-09-28T19:44:13.509Z,61.50
2022-09-28T19:46:41.686Z,61.70
2022-09-28T19:49:12.482Z,61.92
2022-09-28T19:52:01.709Z,61.84
2022-09-28T19:54:36.170Z,61.60
2022-09-28T19:57:07.945Z,61.57
2022-09-28T19:59:38.035Z,61.70
2022-09-28T20:02:07.256Z,61.78
2022-09-28T20:04:35.174Z,62.00
2022-09-28T20:07:03.699Z,61.77
2022-09-28T20:09:32.353Z,61.75
2022-09-28T20:12:00.175Z,61.89
2022-09-28T20:14:32.026Z,61.54
2022-09-28T20:17:05.574Z,61.62
2022-09-28T20:19:33.584Z,62.01
2022-09-28T20:22:03.180Z,61.88
2022-09-28T20:24:31.576Z,61.95
2022-09-28T20:27:00.638Z,61.46
2022-09-28T20:29:28.343Z,61.88
2022-09-28T20:31:56.792Z,62.00
2022-09-28T20:34:25.903Z,61.94
2022-09-28T20:36:53.842Z,61.80
2022-09-28T20:39:21.639Z,61.63
2022-09-28T20:41:49.423Z,62.02
2022-09-28T20:44:17.515Z,61.56
2022-09-28T20:46:45.400Z,61.72
2022-09-28T20:49:13.190Z,61.68
2022-09-28T20:51:42.367Z,61.54
2022-09-28T20:54:10.291Z,61.53
2022-09-28T20:56:39.012Z,61.99
2022-09-28T20:59:09.099Z,61.72
2022-09-28T21:01:36.934Z,61.82
2022-09-28T21:04:06.849Z,61.70
2022-09-28T21:06:36.930Z,61.53
2022-09-28T21:09:07.724Z,61.82
2022-09-28T21:11:36.655Z,61.87
2022-09-28T21:14:06.373Z,62.02
2022-09-28T21:16:35.608Z,61.66
2022-09-28T21:19:03.625Z,61.69
2022-09-28T21:21:31.409Z,62.03
2022-09-28T21:23:59.766Z,62.30
2022-09-28T21:26:31.323Z,62.16
2022-09-28T21:29:01.425Z,61.78
2022-09-28T21:31:32.528Z,61.75
2022-09-28T21:34:00.706Z,61.71
2022-09-28T21:36:28.525Z,61.90
2022-09-28T21:38:56.226Z,61.93
2022-09-28T21:41:24.396Z,61.60
2022-09-28T21:43:53.730Z,61.81
2022-09-28T21:46:21.611Z,61.87
2022-09-28T21:48:53.587Z,61.91
2022-09-28T21:51:21.981Z,61.48
2022-09-28T21:53:50.258Z,61.47
2022-09-28T21:56:18.596Z,61.92
2022-09-28T21:58:46.328Z,61.31
2022-09-28T22:01:18.295Z,61.59
2022-09-28T22:03:48.112Z,61.19
2022-09-28T22:06:16.283Z,61.65
2022-09-28T22:08:43.995Z,61.51
2022-09-28T22:11:13.367Z,61.09
2022-09-28T22:13:43.310Z,61.15
2022-09-28T22:16:11.892Z,61.12
2022-09-28T22:18:41.528Z,61.59
2022-09-28T22:21:13.495Z,61.35
2022-09-28T22:23:41.555Z,61.10
2022-09-28T22:26:11.549Z,61.53
2022-09-28T22:28:40.259Z,61.11
2022-09-28T22:31:08.065Z,61.30
2022-09-28T22:33:35.786Z,61.38
2022-09-28T22:36:05.336Z,61.49
2022-09-28T22:38:33.591Z,61.29
2022-09-28T22:41:03.369Z,61.36
2022-09-28T22:43:34.024Z,61.39
2022-09-28T22:46:03.384Z,61.30
2022-09-28T22:48:31.431Z,61.15
2022-09-28T22:50:59.588Z,61.44
2022-09-28T22:53:29.492Z,61.26
2022-09-28T22:55:57.474Z,61.16
2022-09-28T22:58:25.263Z,61.57
2022-09-28T23:00:54.008Z,61.37
2022-09-28T23:03:21.692Z,61.07
2022-09-28T23:05:56.503Z,61.25
2022-09-28T23:08:25.302Z,61.20
2022-09-28T23:10:54.443Z,61.42
2022-09-28T23:13:22.249Z,61.20
2022-09-28T23:16:00.286Z,61.41
2022-09-28T23:18:30.717Z,61.16
2022-09-28T23:20:59.971Z,61.15
2022-09-28T23:23:27.701Z,61.51
2022-09-28T23:25:57.473Z,61.55
2022-09-28T23:28:27.008Z,61.53
2022-09-28T23:30:55.015Z,61.46
2022-09-28T23:33:23.665Z,61.51
2022-09-28T23:35:51.689Z,61.15
2022-09-28T23:38:19.877Z,61.40
2022-09-28T23:40:47.933Z,61.15
2022-09-28T23:43:17.029Z,61.11
2022-09-28T23:45:45.020Z,61.17
2022-09-28T23:48:14.956Z,61.27
2022-09-28T23:50:43.540Z,61.54
2022-09-28T23:53:11.867Z,61.53
2022-09-28T23:55:39.641Z,61.10
2022-09-28T23:58:07.459Z,61.20
